Time;durP1;ratioP1;P1;durP2;ratioP2;P2;SDS_P1;SDS_P2;PMS_P1;PMS_P2;Temp;Humidity;BMP_temperature;BMP_pressure;BME280_temperature;BME280_humidity;BME280_pressure;Samples;Min_cycle;Max_cycle;Signal;HPM_P1;HPM_P2
2021/12/26 00:01:35;;;;;;;35.10;19.43;;;;;;;3.58;100.00;61183.88;5072972;28;20430;-75
2021/12/26 00:04:05;;;;;;;37.57;20.70;;;;;;;3.54;100.00;61184.66;5072440;28;20447;-72
2021/12/26 00:06:32;;;;;;;40.17;21.60;;;;;;;1.79;100.00;60994.75;5072665;28;20442;-74
2021/12/26 00:09:03;;;;;;;43.17;21.17;;;;;;;3.34;100.00;61163.91;5073625;28;20439;-73
2021/12/26 00:11:31;;;;;;;43.93;21.40;;;;;;;1.69;100.00;60994.69;5073268;28;20439;-74
2021/12/26 00:14:00;;;;;;;42.00;21.47;;;;;;;3.03;100.00;61125.41;5072518;28;20445;-74
2021/12/26 00:16:29;;;;;;;56.43;24.63;;;;;;;2.66;100.00;61091.13;5071762;28;20450;-75
2021/12/26 00:18:58;;;;;;;58.27;26.10;;;;;;;2.91;100.00;61112.63;5072082;28;20454;-72
2021/12/26 00:21:26;;;;;;;54.40;24.23;;;;;;;0.25;100.00;60837.50;5071935;28;20443;-74
2021/12/26 00:23:58;;;;;;;57.07;23.23;;;;;;;2.85;100.00;61108.78;5071700;28;20486;-75
2021/12/26 00:26:25;;;;;;;52.00;22.77;;;;;;;1.36;100.00;60954.13;5071769;28;20442;-74
2021/12/26 00:28:53;;;;;;;55.17;26.10;;;;;;;2.88;100.00;61114.50;5071632;28;20937;-74
2021/12/26 00:31:20;;;;;;;67.80;28.67;;;;;;;1.71;100.00;60993.81;5071767;28;20455;-74
2021/12/26 00:33:51;;;;;;;71.23;31.43;;;;;;;2.33;100.00;61054.06;5073406;28;20438;-72
2021/12/26 00:36:19;;;;;;;59.97;27.67;;;;;;;2.39;100.00;61060.44;5071964;28;20570;-75
2021/12/26 00:38:48;;;;;;;60.77;28.03;;;;;;;2.30;100.00;61053.94;5071912;28;20435;-75
2021/12/26 00:41:15;;;;;;;56.80;26.73;;;;;;;2.25;100.00;61048.63;5071804;28;20988;-74
2021/12/26 00:43:45;;;;;;;52.60;25.70;;;;;;;0.98;100.00;60908.81;5071494;28;21011;-73
2021/12/26 00:46:14;;;;;;;47.07;23.13;;;;;;;1.11;100.00;60922.63;5071829;28;20953;-73
2021/12/26 00:48:42;;;;;;;44.70;22.93;;;;;;;1.18;100.00;60925.00;5072014;28;21018;-74
2021/12/26 00:51:14;;;;;;;41.70;21.53;;;;;;;2.44;100.00;61066.28;5071920;28;20953;-72
2021/12/26 00:53:43;;;;;;;41.83;21.37;;;;;;;0.73;100.00;60885.88;5072007;28;20435;-73
2021/12/26 00:56:10;;;;;;;42.63;21.37;;;;;;;1.05;100.00;60921.25;5071726;28;20503;-73
2021/12/26 00:58:40;;;;;;;41.43;21.53;;;;;;;2.04;100.00;61023.25;5071535;28;20941;-73
2021/12/26 01:01:07;;;;;;;52.90;25.57;;;;;;;2.24;100.00;61047.00;5071633;28;20500;-73
2021/12/26 01:03:34;;;;;;;57.43;25.17;;;;;;;2.24;100.00;61047.56;5072086;28;20567;-74
2021/12/26 01:06:01;;;;;;;55.10;26.10;;;;;;;2.16;100.00;61036.53;5071983;28;20430;-73
2021/12/26 01:08:31;;;;;;;57.70;27.03;;;;;;;2.24;100.00;61044.50;5075630;28;20519;-71
2021/12/26 01:11:03;;;;;;;54.60;25.87;;;;;;;2.28;100.00;61046.78;5076226;28;20901;-72
2021/12/26 01:13:34;;;;;;;47.30;23.60;;;;;;;2.25;100.00;61046.13;5075742;28;20450;-73
2021/12/26 01:16:03;;;;;;;51.90;24.40;;;;;;;1.65;100.00;60999.97;5074520;28;20454;-73
2021/12/26 01:18:33;;;;;;;59.10;27.30;;;;;;;2.43;100.00;61062.72;5075345;28;20443;-74
2021/12/26 01:21:16;;;;;;;58.83;25.40;;;;;;;1.12;100.00;60926.16;5075331;28;20438;-73
2021/12/26 01:23:50;;;;;;;54.57;24.13;;;;;;;1.07;100.00;60918.38;5074969;28;20926;-73
2021/12/26 01:26:17;;;;;;;79.77;29.87;;;;;;;2.24;100.00;61045.03;5075190;28;20450;-74
2021/12/26 01:28:44;;;;;;;63.07;27.03;;;;;;;1.18;100.00;60935.03;5075487;28;20493;-74
2021/12/26 01:31:18;;;;;;;74.93;29.10;;;;;;;2.03;100.00;61022.75;5075381;28;20451;-74
2021/12/26 01:33:45;;;;;;;51.47;22.73;;;;;;;1.94;100.00;61015.69;5074934;28;20477;-74
2021/12/26 01:36:19;;;;;;;51.03;21.57;;;;;;;2.11;100.00;61033.22;5075330;28;21090;-73
2021/12/26 01:38:49;;;;;;;122.40;46.23;;;;;;;0.51;100.00;60860.03;5075110;28;20446;-73
2021/12/26 01:41:17;;;;;;;37.63;18.33;;;;;;;1.90;100.00;61005.88;5075154;28;20857;-73
2021/12/26 01:43:48;;;;;;;37.27;18.90;;;;;;;0.12;100.00;60823.19;5075281;28;20497;-71
2021/12/26 01:46:16;;;;;;;40.07;19.37;;;;;;;1.86;100.00;61007.22;5075297;28;20438;-73
2021/12/26 01:48:45;;;;;;;43.07;19.87;;;;;;;1.83;100.00;61001.53;5075478;28;20439;-73
2021/12/26 01:51:13;;;;;;;44.73;20.80;;;;;;;1.87;100.00;61003.25;5075077;28;20430;-73
2021/12/26 01:53:40;;;;;;;49.23;20.70;;;;;;;1.85;100.00;61005.63;5074788;28;20453;-74
2021/12/26 01:56:24;;;;;;;44.20;18.93;;;;;;;1.95;100.00;61019.28;5074871;28;20487;-74
2021/12/26 01:58:52;;;;;;;41.50;19.87;;;;;;;1.85;100.00;61001.13;5074265;28;20511;-71
2021/12/26 02:01:20;;;;;;;41.13;19.80;;;;;;;0.16;100.00;60824.94;5074710;28;20474;-74
2021/12/26 02:03:47;;;;;;;38.87;18.97;;;;;;;2.11;100.00;61033.75;5074462;28;20535;-73
2021/12/26 02:06:16;;;;;;;43.50;21.27;;;;;;;0.79;100.00;60887.22;5074684;28;20507;-71
2021/12/26 02:08:43;;;;;;;39.07;18.87;;;;;;;2.28;100.00;61056.81;5074209;28;20458;-74
2021/12/26 02:11:11;;;;;;;36.23;18.40;;;;;;;2.03;100.00;61020.25;5074390;28;20469;-74
2021/12/26 02:13:39;;;;;;;59.30;28.57;;;;;;;2.34;100.00;61053.16;5075163;28;20439;-72
2021/12/26 02:16:08;;;;;;;58.97;34.23;;;;;;;2.37;100.00;61058.84;5074829;28;20434;-73
2021/12/26 02:18:35;;;;;;;59.40;35.03;;;;;;;1.77;100.00;60992.09;5073265;28;20439;-72
2021/12/26 02:21:15;;;;;;;60.93;32.43;;;;;;;1.25;100.00;60939.97;5074219;28;20895;-73
2021/12/26 02:23:48;;;;;;;56.07;33.33;;;;;;;2.52;100.00;61069.75;5074739;28;20566;-73
2021/12/26 02:29:00;;;;;;;66.33;33.27;;;;;;;2.51;100.00;61073.72;5074748;28;20484;-73
2021/12/26 02:31:29;;;;;;;380.10;155.03;;;;;;;2.47;100.00;61068.94;5073982;28;20990;-71
2021/12/26 02:33:57;;;;;;;45.60;25.07;;;;;;;2.35;100.00;61059.25;5074204;28;20445;-73
2021/12/26 02:36:25;;;;;;;41.20;22.77;;;;;;;2.52;100.00;61072.25;5074320;28;20482;-73
2021/12/26 02:38:54;;;;;;;46.67;24.47;;;;;;;2.65;100.00;61087.53;5074208;28;20443;-72
2021/12/26 02:41:22;;;;;;;36.43;17.53;;;;;;;2.85;100.00;61106.81;5073842;28;21032;-73
2021/12/26 02:43:49;;;;;;;32.23;15.83;;;;;;;2.98;100.00;61120.09;5073871;28;20474;-72
2021/12/26 02:46:16;;;;;;;27.83;15.93;;;;;;;1.93;100.00;61014.66;5074036;28;20443;-72
2021/12/26 02:48:45;;;;;;;36.40;19.47;;;;;;;3.15;100.00;61143.19;5072556;28;20951;-75
2021/12/26 02:51:12;;;;;;;31.97;15.80;;;;;;;3.22;100.00;61150.63;5074189;28;20822;-73
2021/12/26 02:53:40;;;;;;;25.00;14.13;;;;;;;2.29;100.00;61052.88;5073712;28;20503;-72
2021/12/26 02:56:08;;;;;;;35.20;16.20;;;;;;;3.31;100.00;61155.16;5073642;28;20442;-74
2021/12/26 02:58:35;;;;;;;33.03;16.20;;;;;;;3.11;100.00;61133.91;5073609;28;20458;-74
2021/12/26 03:01:07;;;;;;;29.63;16.00;;;;;;;3.25;100.00;61151.28;5072052;28;20504;-72
2021/12/26 03:03:36;;;;;;;29.27;13.83;;;;;;;3.32;100.00;61161.25;5073092;28;20513;-71
2021/12/26 03:06:15;;;;;;;32.10;18.67;;;;;;;3.23;100.00;61149.72;5072552;28;20493;-73
2021/12/26 03:08:46;;;;;;;34.83;19.10;;;;;;;2.12;100.00;61031.75;5073533;28;20508;-73
2021/12/26 03:11:13;;;;;;;30.40;16.57;;;;;;;3.21;100.00;61147.03;5070239;28;20795;-75
2021/12/26 03:13:42;;;;;;;30.50;17.63;;;;;;;3.17;100.00;61145.31;5073322;28;20434;-74
2021/12/26 03:16:09;;;;;;;35.90;19.00;;;;;;;2.86;100.00;61109.84;5072626;28;20925;-72
2021/12/26 03:18:36;;;;;;;30.50;16.07;;;;;;;3.01;100.00;61128.31;5073115;28;21030;-74
2021/12/26 03:21:03;;;;;;;29.90;16.37;;;;;;;3.03;100.00;61127.91;5073388;28;20503;-74
2021/12/26 03:23:30;;;;;;;28.63;17.23;;;;;;;3.02;100.00;61129.38;5073447;28;20544;-73
2021/12/26 03:26:04;;;;;;;31.80;18.53;;;;;;;3.03;100.00;61130.44;5072680;28;20463;-75
2021/12/26 03:28:34;;;;;;;31.40;17.00;;;;;;;3.19;100.00;61144.91;5072104;28;20431;-74
2021/12/26 03:31:01;;;;;;;31.67;16.50;;;;;;;2.30;100.00;61048.38;5071718;28;20482;-73
2021/12/26 03:33:30;;;;;;;28.53;16.53;;;;;;;1.53;100.00;60969.69;5072002;28;20879;-75
2021/12/26 03:35:57;;;;;;;31.43;17.70;;;;;;;2.90;100.00;61116.63;5073002;28;20968;-74
2021/12/26 03:38:29;;;;;;;31.23;15.33;;;;;;;2.96;100.00;61128.03;5072665;28;20450;-72
2021/12/26 03:40:57;;;;;;;30.43;16.07;;;;;;;2.28;100.00;61051.81;5070861;28;20500;-73
2021/12/26 03:43:26;;;;;;;30.70;16.03;;;;;;;2.08;100.00;61025.00;5069956;28;21016;-74
2021/12/26 03:45:57;;;;;;;32.77;16.90;;;;;;;2.98;100.00;61122.59;5072147;28;20439;-74
2021/12/26 03:48:26;;;;;;;36.07;16.97;;;;;;;2.87;100.00;61110.91;5072306;28;20838;-74
2021/12/26 03:50:54;;;;;;;33.03;16.10;;;;;;;2.82;100.00;61108.63;5070911;28;20499;-72
2021/12/26 03:53:22;;;;;;;32.50;15.27;;;;;;;2.82;100.00;61108.13;5071790;28;20512;-73
2021/12/26 03:55:51;;;;;;;30.70;15.80;;;;;;;2.72;100.00;61092.47;5072162;28;20449;-74
2021/12/26 03:58:18;;;;;;;33.00;17.03;;;;;;;2.69;100.00;61089.25;5072930;28;20856;-73
2021/12/26 04:00:50;;;;;;;33.80;18.77;;;;;;;2.36;100.00;61055.28;5072954;28;20435;-71
2021/12/26 04:03:17;;;;;;;40.77;19.90;;;;;;;2.13;100.00;61035.88;5072508;28;20470;-73
2021/12/26 04:05:44;;;;;;;36.33;18.47;;;;;;;2.20;100.00;61038.28;5072253;28;20945;-73
2021/12/26 04:08:14;;;;;;;39.97;19.40;;;;;;;2.21;100.00;61044.38;5072014;28;20442;-74
2021/12/26 04:10:42;;;;;;;36.20;18.20;;;;;;;0.36;100.00;60844.16;5072568;28;20454;-73
2021/12/26 04:13:09;;;;;;;33.40;15.60;;;;;;;2.29;100.00;61050.38;5072266;28;20872;-74
2021/12/26 04:15:37;;;;;;;36.27;15.87;;;;;;;2.46;100.00;61068.41;5072224;28;20447;-74
2021/12/26 04:18:07;;;;;;;38.27;20.00;;;;;;;1.86;100.00;61007.22;5072083;28;20984;-72
2021/12/26 04:20:35;;;;;;;41.10;19.50;;;;;;;1.07;100.00;60923.38;5071950;28;20985;-73
2021/12/26 04:23:05;;;;;;;49.30;21.70;;;;;;;2.31;100.00;61054.47;5071779;28;20443;-72
2021/12/26 04:25:35;;;;;;;40.83;19.67;;;;;;;2.32;100.00;61053.53;5072279;28;20504;-73
2021/12/26 04:28:03;;;;;;;40.30;18.67;;;;;;;2.37;100.00;61061.38;5072152;28;20431;-74
2021/12/26 04:30:30;;;;;;;36.50;19.03;;;;;;;2.31;100.00;61055.00;5071696;28;20886;-74
2021/12/26 04:32:58;;;;;;;40.93;19.40;;;;;;;2.37;100.00;61055.81;5072188;28;20964;-74
2021/12/26 04:35:28;;;;;;;38.90;20.13;;;;;;;2.42;100.00;61063.63;5071987;28;20470;-74
2021/12/26 04:37:55;;;;;;;40.27;19.70;;;;;;;2.16;100.00;61033.50;5070814;28;20446;-72
2021/12/26 04:40:22;;;;;;;38.03;20.43;;;;;;;2.45;100.00;61066.81;5071841;28;20520;-74
2021/12/26 04:42:51;;;;;;;41.90;20.23;;;;;;;2.54;100.00;61073.84;5072311;28;20445;-73
2021/12/26 04:45:21;;;;;;;38.70;19.50;;;;;;;2.51;100.00;61073.72;5075624;28;20565;-74
2021/12/26 04:47:52;;;;;;;32.60;18.37;;;;;;;2.66;100.00;61089.13;5071149;28;20500;-74
2021/12/26 04:50:24;;;;;;;44.77;19.83;;;;;;;2.61;100.00;61081.31;5071820;28;20987;-75
2021/12/26 04:52:53;;;;;;;36.87;18.67;;;;;;;2.61;100.00;61085.78;5071785;28;20465;-72
2021/12/26 04:55:24;;;;;;;32.70;17.80;;;;;;;2.61;100.00;61080.75;5071707;28;20435;-73
2021/12/26 04:57:52;;;;;;;34.27;17.07;;;;;;;2.75;100.00;61095.63;5071908;28;20488;-73
2021/12/26 05:00:22;;;;;;;35.23;18.13;;;;;;;2.73;100.00;61093.50;5071583;28;20462;-74
2021/12/26 05:02:54;;;;;;;36.53;17.90;;;;;;;2.68;100.00;61088.22;5070556;28;20949;-73
2021/12/26 05:05:26;;;;;;;33.50;17.33;;;;;;;2.50;100.00;61075.16;5072507;28;20497;-72
2021/12/26 05:07:56;;;;;;;31.63;17.03;;;;;;;2.81;100.00;61102.00;5071842;28;20449;-73
2021/12/26 05:10:28;;;;;;;44.90;22.60;;;;;;;2.84;100.00;61105.22;5071526;28;20447;-72
2021/12/26 05:12:59;;;;;;;37.80;19.80;;;;;;;1.70;100.00;60990.22;5072031;28;20439;-73
2021/12/26 05:15:27;;;;;;;38.13;20.23;;;;;;;1.76;100.00;60991.56;5071536;28;20454;-73
2021/12/26 05:17:57;;;;;;;40.33;19.73;;;;;;;2.38;100.00;61064.94;5071361;28;20949;-74
2021/12/26 05:20:26;;;;;;;39.10;18.77;;;;;;;2.87;100.00;61108.94;5071595;28;20466;-74
2021/12/26 05:22:57;;;;;;;35.73;18.77;;;;;;;2.76;100.00;61101.75;5071470;28;20964;-76
2021/12/26 05:25:26;;;;;;;35.60;19.33;;;;;;;1.59;100.00;60968.53;5070546;28;20486;-73
2021/12/26 05:27:56;;;;;;;37.67;19.67;;;;;;;2.78;100.00;61101.88;5071866;28;20439;-73
2021/12/26 05:30:27;;;;;;;36.83;18.37;;;;;;;2.75;100.00;61100.66;5071114;28;20442;-73
2021/12/26 05:32:54;;;;;;;80.43;27.37;;;;;;;1.70;100.00;60987.72;5071650;28;20446;-74
2021/12/26 05:35:21;;;;;;;42.47;20.53;;;;;;;1.37;100.00;60952.69;5071005;28;21238;-73
2021/12/26 05:37:49;;;;;;;38.50;19.03;;;;;;;2.73;100.00;61099.06;5071507;28;20442;-74
2021/12/26 05:40:26;;;;;;;50.67;21.70;;;;;;;2.73;100.00;61093.50;5071193;28;20972;-73
2021/12/26 05:42:55;;;;;;;30.37;17.90;;;;;;;2.92;100.00;61116.22;5071324;28;20438;-75
2021/12/26 05:45:23;;;;;;;34.60;17.23;;;;;;;2.76;100.00;61096.72;5071349;28;20478;-73
2021/12/26 05:47:51;;;;;;;46.33;21.37;;;;;;;2.98;100.00;61125.13;5071088;28;20451;-76
2021/12/26 05:50:21;;;;;;;85.23;33.43;;;;;;;2.84;100.00;61110.75;5069784;28;20442;-74
2021/12/26 05:52:48;;;;;;;55.87;24.67;;;;;;;2.83;100.00;61114.72;5072660;28;20458;-75
2021/12/26 05:55:18;;;;;;;47.53;22.10;;;;;;;3.01;100.00;61126.31;5074946;28;20438;-75
2021/12/26 05:57:49;;;;;;;43.97;21.40;;;;;;;2.95;100.00;61119.41;5074946;28;20443;-72
2021/12/26 06:00:19;;;;;;;40.87;18.83;;;;;;;2.95;100.00;61119.41;5074553;28;20450;-73
2021/12/26 06:05:28;;;;;;;28.20;16.23;;;;;;;1.50;100.00;60963.97;5074268;28;20486;-74
2021/12/26 06:07:56;;;;;;;89.27;28.13;;;;;;;3.02;100.00;61124.84;5074512;28;20502;-74
2021/12/26 06:10:33;;;;;;;33.53;16.33;;;;;;;3.05;100.00;61127.53;5075015;28;20795;-74
2021/12/26 06:13:00;;;;;;;49.80;21.40;;;;;;;2.76;100.00;61099.22;5075437;28;20464;-73
2021/12/26 06:15:29;;;;;;;41.33;16.07;;;;;;;2.89;100.00;61115.53;5075395;28;20439;-75
2021/12/26 06:17:56;;;;;;;25.57;13.13;;;;;;;2.94;100.00;61115.84;5073968;28;20454;-74
2021/12/26 06:20:23;;;;;;;23.30;10.50;;;;;;;2.86;100.00;61109.84;5074544;28;20591;-74
2021/12/26 06:22:59;;;;;;;22.20;11.67;;;;;;;2.92;100.00;61116.22;5074289;28;20518;-74
2021/12/26 06:25:31;;;;;;;26.07;11.47;;;;;;;2.86;100.00;61110.38;5074085;28;21194;-74
2021/12/26 06:28:01;;;;;;;25.83;12.47;;;;;;;2.74;100.00;61099.63;5074172;28;20945;-75
2021/12/26 06:30:31;;;;;;;21.90;11.67;;;;;;;2.00;100.00;61022.06;5073880;28;20942;-75
2021/12/26 06:33:00;;;;;;;22.20;12.40;;;;;;;2.84;100.00;61110.25;5073144;28;20430;-74
2021/12/26 06:35:27;;;;;;;32.60;16.27;;;;;;;2.74;100.00;61099.63;5073850;28;21066;-74
2021/12/26 06:37:54;;;;;;;34.13;16.53;;;;;;;2.75;100.00;61098.69;5074148;28;20534;-74
2021/12/26 06:40:37;;;;;;;37.47;18.57;;;;;;;2.90;100.00;61116.63;5073813;28;20936;-74
2021/12/26 06:43:08;;;;;;;40.43;20.47;;;;;;;2.56;100.00;61081.53;5073985;28;20431;-74
2021/12/26 06:45:36;;;;;;;36.60;19.30;;;;;;;2.52;100.00;61072.25;5074211;28;20512;-75
2021/12/26 06:48:10;;;;;;;36.60;18.53;;;;;;;2.52;100.00;61076.75;5074286;28;20451;-73
2021/12/26 06:50:38;;;;;;;34.20;16.80;;;;;;;2.58;100.00;61082.63;5080107;28;20527;-73
2021/12/26 06:53:06;;;;;;;34.57;16.90;;;;;;;1.01;100.00;60914.50;5073902;28;20576;-73
2021/12/26 06:55:39;;;;;;;37.47;18.90;;;;;;;2.66;100.00;61093.63;5073680;28;20447;-74
2021/12/26 06:58:09;;;;;;;26.97;14.27;;;;;;;1.07;100.00;60923.38;5073669;28;20508;-74
2021/12/26 07:00:47;;;;;;;26.60;13.97;;;;;;;1.75;100.00;60995.53;5072681;28;20443;-72
2021/12/26 07:03:16;;;;;;;24.40;12.40;;;;;;;2.76;100.00;61096.72;5074233;28;20504;-74
2021/12/26 07:05:50;;;;;;;28.73;14.50;;;;;;;2.86;100.00;61112.88;5073089;28;20512;-76
2021/12/26 07:08:17;;;;;;;25.80;14.20;;;;;;;2.82;100.00;61105.59;5073204;28;20531;-75
2021/12/26 07:10:45;;;;;;;30.53;15.27;;;;;;;2.84;100.00;61110.75;5073275;28;20442;-75
2021/12/26 07:13:13;;;;;;;25.00;12.50;;;;;;;2.83;100.00;61106.66;5072871;28;20838;-73
2021/12/26 07:15:41;;;;;;;25.13;13.13;;;;;;;2.86;100.00;61107.34;5074083;28;21031;-73
2021/12/26 07:18:08;;;;;;;26.90;13.47;;;;;;;1.80;100.00;61005.84;5073912;28;20860;-74
2021/12/26 07:20:37;;;;;;;23.60;12.73;;;;;;;3.10;100.00;61138.41;5073601;28;20446;-74
2021/12/26 07:23:04;;;;;;;21.47;12.90;;;;;;;3.19;100.00;61145.44;5073790;28;20467;-74
2021/12/26 07:25:37;;;;;;;37.17;20.37;;;;;;;3.13;100.00;61138.53;5073825;28;20474;-75
2021/12/26 07:28:06;;;;;;;22.73;12.30;;;;;;;3.06;100.00;61134.13;5072522;28;20453;-75
2021/12/26 07:30:33;;;;;;;21.47;12.20;;;;;;;3.51;100.00;61176.41;5072164;28;20443;-73
2021/12/26 07:33:02;;;;;;;22.33;12.77;;;;;;;3.53;100.00;61181.06;5073303;28;20867;-73
2021/12/26 07:35:31;;;;;;;21.73;12.17;;;;;;;2.10;100.00;61032.16;5073242;28;20482;-76
2021/12/26 07:38:01;;;;;;;26.77;13.23;;;;;;;3.62;100.00;61192.63;5072358;28;20439;-74
2021/12/26 07:40:34;;;;;;;31.10;14.13;;;;;;;3.70;100.00;61201.69;5073924;28;20461;-74
2021/12/26 07:43:01;;;;;;;53.63;20.77;;;;;;;3.77;100.00;61204.06;5074608;28;20832;-75
2021/12/26 07:45:38;;;;;;;72.00;26.20;;;;;;;3.87;100.00;61214.19;5082241;28;20516;-73
2021/12/26 07:48:05;;;;;;;48.60;20.50;;;;;;;3.93;100.00;61221.09;5096172;28;20431;-73
2021/12/26 07:50:33;;;;;;;26.47;13.47;;;;;;;3.91;100.00;61221.50;5096383;28;20496;-74
2021/12/26 07:53:06;;;;;;;35.43;15.87;;;;;;;4.02;100.00;61235.72;5075339;28;20439;-73
2021/12/26 07:55:34;;;;;;;36.23;15.60;;;;;;;4.05;100.00;61233.88;5072211;28;20680;-74
2021/12/26 07:58:02;;;;;;;28.57;13.33;;;;;;;3.02;100.00;61124.34;5072238;28;20439;-74
2021/12/26 08:00:31;;;;;;;38.10;17.73;;;;;;;3.31;100.00;61155.16;5072147;28;21011;-75
2021/12/26 08:03:00;;;;;;;28.53;14.80;;;;;;;4.10;100.00;61244.22;5072098;28;20961;-74
2021/12/26 08:05:39;;;;;;;25.50;13.53;;;;;;;4.26;100.00;61258.75;5072090;28;20919;-74
2021/12/26 08:08:10;;;;;;;29.57;14.20;;;;;;;2.75;100.00;61096.19;5070883;28;20443;-74
2021/12/26 08:10:38;;;;;;;25.07;12.50;;;;;;;4.16;100.00;61250.09;5071175;28;20438;-75
2021/12/26 08:13:09;;;;;;;71.87;39.43;;;;;;;4.28;100.00;61260.34;5071912;28;20443;-76
2021/12/26 08:15:38;;;;;;;42.00;22.27;;;;;;;4.39;100.00;61269.00;5071639;28;20925;-73
2021/12/26 08:18:06;;;;;;;34.03;21.27;;;;;;;4.50;100.00;61281.22;5071996;28;20845;-74
2021/12/26 08:20:34;;;;;;;49.20;30.93;;;;;;;2.67;100.00;61089.66;5072188;28;20446;-74
2021/12/26 08:23:03;;;;;;;35.07;21.27;;;;;;;4.38;100.00;61272.97;5071706;28;20566;-75
2021/12/26 08:25:34;;;;;;;26.93;14.53;;;;;;;3.14;100.00;61137.09;5071706;28;21019;-76
2021/12/26 08:28:05;;;;;;;26.27;15.10;;;;;;;4.35;100.00;61267.25;5072632;28;20427;-73
2021/12/26 08:30:34;;;;;;;25.47;12.57;;;;;;;3.63;100.00;61194.22;5072002;28;20419;-74
2021/12/26 08:33:07;;;;;;;22.20;12.87;;;;;;;4.98;100.00;61339.91;5070545;28;20965;-75
2021/12/26 08:35:38;;;;;;;24.20;12.80;;;;;;;3.92;100.00;61220.03;5072081;28;20474;-73
2021/12/26 08:38:06;;;;;;;24.37;12.73;;;;;;;3.86;100.00;61218.16;5071750;28;20442;-75
2021/12/26 08:40:33;;;;;;;21.67;13.33;;;;;;;4.72;100.00;61309.16;5071226;28;20462;-73
2021/12/26 08:43:03;;;;;;;21.37;12.23;;;;;;;4.92;100.00;61328.47;5071257;28;20839;-73
2021/12/26 08:45:34;;;;;;;24.43;13.13;;;;;;;4.66;100.00;61300.25;5071709;28;20947;-74
2021/12/26 08:48:02;;;;;;;26.67;14.13;;;;;;;4.74;100.00;61311.81;5071451;28;20495;-74
2021/12/26 08:50:33;;;;;;;29.37;15.13;;;;;;;4.92;100.00;61325.94;5071055;28;20454;-76
2021/12/26 08:53:01;;;;;;;32.37;15.70;;;;;;;5.03;100.00;61342.19;5071017;28;20793;-74
2021/12/26 08:55:28;;;;;;;25.70;13.27;;;;;;;5.06;100.00;61345.38;5073962;28;20446;-75
2021/12/26 08:57:58;;;;;;;26.17;14.10;;;;;;;5.09;100.00;61346.56;5075822;28;20442;-75
2021/12/26 09:00:29;;;;;;;26.23;12.97;;;;;;;4.73;100.00;61307.72;5071546;28;20478;-74
2021/12/26 09:03:00;;;;;;;24.77;13.57;;;;;;;5.23;100.00;61363.50;5070061;28;20463;-74
2021/12/26 09:05:29;;;;;;;20.67;11.97;;;;;;;4.08;100.00;61237.06;5070540;28;20482;-74
2021/12/26 09:07:59;;;;;;;19.37;11.27;;;;;;;5.33;100.00;61374.16;5071599;28;20447;-75
2021/12/26 09:10:38;;;;;;;24.70;13.13;;;;;;;4.48;100.00;61281.09;5071394;28;20456;-72
2021/12/26 09:13:06;;;;;;;24.23;13.70;;;;;;;5.53;100.00;61392.94;5072272;28;20445;-73
2021/12/26 09:15:37;;;;;;;24.10;14.87;;;;;;;5.61;100.00;61398.38;5071615;28;20961;-73
2021/12/26 09:18:06;;;;;;;28.27;14.40;;;;;;;4.57;100.00;61283.09;5071058;28;20463;-73
2021/12/26 09:20:33;;;;;;;25.73;14.13;;;;;;;5.71;100.00;61414.09;5071838;28;20446;-73
2021/12/26 09:23:04;;;;;;;26.27;14.73;;;;;;;5.77;100.00;61415.97;5071341;28;20446;-76
2021/12/26 09:25:32;;;;;;;25.00;14.43;;;;;;;4.82;100.00;61312.22;5072298;28;20575;-74
2021/12/26 09:28:01;;;;;;;23.90;13.97;;;;;;;4.85;100.00;61317.97;5073121;28;20945;-74
2021/12/26 09:30:29;;;;;;;23.87;14.13;;;;;;;4.88;100.00;61321.16;5075094;28;20439;-75
2021/12/26 09:32:59;;;;;;;23.37;12.97;;;;;;;5.25;100.00;61363.09;5074574;28;21049;-76
2021/12/26 09:35:29;;;;;;;26.23;13.63;;;;;;;5.16;100.00;61356.03;5075304;28;20470;-74
2021/12/26 09:37:59;;;;;;;26.10;15.23;;;;;;;5.60;100.00;61397.31;5075605;28;20533;-75
2021/12/26 09:40:28;;;;;;;26.17;15.67;;;;;;;5.96;100.00;61438.78;5074824;28;20459;-74
2021/12/26 09:42:58;;;;;;;28.37;16.13;;;;;;;6.15;100.00;61460.50;5074686;28;20439;-74
2021/12/26 09:45:26;;;;;;;24.00;14.20;;;;;;;6.00;100.00;61439.47;5074639;28;20479;-73
2021/12/26 09:47:55;;;;;;;23.00;13.93;;;;;;;6.01;100.00;61443.56;5074771;28;20987;-75
2021/12/26 09:50:26;;;;;;;23.07;14.27;;;;;;;6.14;100.00;61459.44;5075207;28;20442;-73
2021/12/26 09:52:53;;;;;;;25.57;15.43;;;;;;;6.27;100.00;61468.25;5074992;28;20438;-74
2021/12/26 09:55:23;;;;;;;26.37;15.67;;;;;;;5.19;100.00;61354.19;5074681;28;20942;-76
2021/12/26 09:57:55;;;;;;;24.63;14.90;;;;;;;4.80;100.00;61312.63;5074427;28;20439;-75
2021/12/26 10:00:31;;;;;;;28.77;15.97;;;;;;;6.32;100.00;61468.53;5074328;28;20897;-74
2021/12/26 10:03:15;;;;;;;29.80;17.27;;;;;;;6.51;100.00;61496.38;5074586;28;20438;-74
2021/12/26 10:06:18;;;;;;;31.57;17.60;;;;;;;6.65;100.00;61513.84;5074994;28;20976;-75
2021/12/26 10:08:54;;;;;;;24.97;15.30;;;;;;;6.65;100.00;61508.78;5012583;28;20436;-74
2021/12/26 10:11:27;;;;;;;24.43;14.67;;;;;;;6.40;100.00;61484.66;5012588;28;20851;-75
2021/12/26 10:14:03;;;;;;;24.03;14.60;;;;;;;6.54;100.00;61502.63;5038469;28;20446;-75
2021/12/26 10:16:31;;;;;;;24.93;14.40;;;;;;;6.18;100.00;61458.66;5074068;28;20464;-76
2021/12/26 10:18:59;;;;;;;26.67;16.00;;;;;;;6.92;100.00;61539.59;5074181;28;20957;-74
2021/12/26 10:21:29;;;;;;;27.73;16.40;;;;;;;6.83;100.00;61522.91;5074145;28;21018;-75
2021/12/26 10:23:59;;;;;;;25.83;15.33;;;;;;;6.90;100.00;61540.53;5074713;28;20496;-74
2021/12/26 10:26:31;;;;;;;32.70;17.43;;;;;;;5.86;100.00;61430.63;5073826;28;20543;-72
2021/12/26 10:29:32;;;;;;;24.17;14.97;;;;;;;7.26;100.00;61573.88;5074226;28;20438;-73
2021/12/26 10:32:09;;;;;;;33.10;16.60;;;;;;;7.20;100.00;61570.00;5074043;28;20568;-73
2021/12/26 10:34:43;;;;;;;21.90;13.53;;;;;;;7.41;100.00;61589.34;5074492;28;20446;-74
2021/12/26 10:37:14;;;;;;;26.37;15.77;;;;;;;7.55;100.00;61599.78;5073645;28;20488;-74
2021/12/26 10:39:44;;;;;;;34.67;18.83;;;;;;;7.68;100.00;61626.34;5072616;28;20446;-75
2021/12/26 10:42:16;;;;;;;33.10;18.60;;;;;;;6.39;100.00;61475.97;5072892;28;20443;-74
2021/12/26 10:44:47;;;;;;;29.47;16.33;;;;;;;7.96;100.00;61650.09;5073637;28;20458;-73
2021/12/26 10:47:17;;;;;;;28.30;17.07;;;;;;;8.12;100.00;61667.19;5074193;28;20539;-75
2021/12/26 10:49:51;;;;;;;21.70;12.83;;;;;;;6.69;100.00;61513.03;5073854;28;20431;-75
2021/12/26 10:52:27;;;;;;;24.67;12.87;;;;;;;8.09;100.00;61661.47;5073344;28;20450;-77
2021/12/26 10:54:59;;;;;;;21.53;12.77;;;;;;;7.84;100.00;61632.75;5073368;28;20438;-75
2021/12/26 10:57:32;;;;;;;25.07;14.20;;;;;;;8.42;100.00;61691.66;5073649;28;20497;-74
2021/12/26 11:00:22;;;;;;;25.03;13.37;;;;;;;8.50;100.00;61705.28;5073425;28;20450;-74
2021/12/26 11:02:51;;;;;;;21.27;12.47;;;;;;;8.67;100.00;61728.56;5075808;28;20438;-73
2021/12/26 11:05:22;;;;;;;23.53;12.80;;;;;;;8.81;100.00;61740.97;5075102;28;20431;-73
2021/12/26 11:07:57;;;;;;;22.53;13.10;;;;;;;8.83;100.00;61737.50;5073362;28;20823;-73
2021/12/26 11:10:28;;;;;;;24.07;14.27;;;;;;;8.90;100.00;61752.59;5073337;28;20430;-73
2021/12/26 11:12:57;;;;;;;25.60;14.43;;;;;;;9.00;100.00;61753.66;5072980;28;20439;-75
2021/12/26 11:15:31;;;;;;;21.83;12.67;;;;;;;9.07;100.00;61768.25;5072754;28;20442;-73
2021/12/26 11:18:01;;;;;;;26.77;14.53;;;;;;;9.17;100.00;61782.03;5072786;28;20446;-74
2021/12/26 11:20:34;;;;;;;14.37;10.03;;;;;;;9.37;100.00;61797.81;5072818;28;20825;-75
2021/12/26 11:23:09;;;;;;;20.97;9.43;;;;;;;9.47;100.00;61807.97;5072798;28;20941;-75
2021/12/26 11:25:36;;;;;;;16.77;9.80;;;;;;;9.53;100.00;61816.91;5073389;28;20477;-74
2021/12/26 11:28:04;;;;;;;14.17;8.63;;;;;;;8.81;100.00;61737.91;5072598;28;20511;-75
2021/12/26 11:30:33;;;;;;;15.10;8.37;;;;;;;9.96;100.00;61860.41;5073155;28;20218;-76
2021/12/26 11:33:03;;;;;;;19.33;10.17;;;;;;;10.05;100.00;61870.03;5072880;28;20192;-74
2021/12/26 11:35:30;;;;;;;23.10;10.70;;;;;;;10.16;100.00;61882.38;5072350;28;20228;-74